Terminal Aerodrome Forecast
Issued by NWS Green Bay, WI

Home | Current Version | Previous Version | Text Only | Print | Product List | Glossary On
Versions: 1 2 3 4 5 6 7 8 9 10 11 12 13 14 15 16 17 18 19 20 21 22 23 24 25 26 27 28
000
FTUS43 KGRB 140602 AAA
TAFGRB
TAF AMD
KGRB 140602Z 1406/1506 31010KT P6SM SCT025 SCT035
      TEMPO 1406/1410 -SHSN
     FM141000 30008KT P6SM BKN026
     FM141500 26005KT P6SM BKN040
     FM142100 25006KT P6SM BKN030
     FM150000 26005KT P6SM -SHSN BKN035=

USA.gov is the U.S. government's official web portal to all federal, state and local government web resources and services.